No particular awareness of the weather is required.    There are no Weather-warnings


Meteo18 Weather Cam more information Meteo18 Weather Cam


Thunder radar more information blitzortung!


Rain radar more information rain snow radar


Visit our other weather sites:

Template documentation
and downloads

And another site



Weather Underground History page Text

Daily Summary for May 3, 2017 Units:  Metric    English   Both
« Previous Day
Next Day »
Daily Weekly Monthly Yearly Custom
  High: Low: Average:
Temperature: 13.7 °C 5.5 °C 9.3 °C
Dew Point: 9.5 °C 4.5 °C 7.2 °C
Humidity: 96 % 68 % 87 %
Wind Speed: 9.7 km/h 0.0 km/h 1.3 km/h
Wind Gust: 16.1 km/h - -
Wind:- - SSE
Pressure: 1019.5 hPa 1017.2 hPa -
Precipitation: 2.8 mm    
Historical Graphs
 
 
Tabular Data for May 3, 2017
Time Temperature Dew Point Pressure Wind Wind Speed Wind Gust Humidity Rainfall Rate (Hourly)
00:02 9.6 °C 7.0 °C 1019.5 hPa Calm   4.8 km/h 84 % 0.0 mm
00:07 9.7 °C 7.1 °C 1019.5 hPa Calm   3.2 km/h 84 % 0.0 mm
00:12 9.6 °C 7.0 °C 1019.5 hPa Calm   4.8 km/h 84 % 0.0 mm
00:17 9.4 °C 7.0 °C 1019.5 hPa Calm   4.8 km/h 85 % 0.0 mm
00:22 9.2 °C 6.8 °C 1019.5 hPa Calm   1.6 km/h 85 % 0.0 mm
00:32 8.9 °C 6.9 °C 1019.5 hPa Calm   1.6 km/h 87 % 0.0 mm
00:42 8.7 °C 6.8 °C 1019.5 hPa West 1.6 km/h 3.2 km/h 88 % 0.0 mm
00:47 8.7 °C 6.8 °C 1019.5 hPa West 1.6 km/h 3.2 km/h 88 % 0.0 mm
00:52 8.7 °C 6.7 °C 1019.5 hPa Calm   3.2 km/h 87 % 0.0 mm
00:57 8.6 °C 6.6 °C 1019.5 hPa Calm   3.2 km/h 87 % 0.0 mm
01:02 8.5 °C 6.5 °C 1019.5 hPa Calm   3.2 km/h 87 % 0.0 mm
01:07 8.4 °C 6.5 °C 1019.5 hPa Calm   1.6 km/h 88 % 0.0 mm
01:12 8.2 °C 6.3 °C 1019.5 hPa Calm   1.6 km/h 88 % 0.0 mm
01:17 8.1 °C 6.4 °C 1019.5 hPa Calm   1.6 km/h 89 % 0.0 mm
01:22 8.0 °C 6.3 °C 1019.5 hPa Calm   3.2 km/h 89 % 0.0 mm
01:27 7.8 °C 6.1 °C 1019.5 hPa Calm   3.2 km/h 89 % 0.0 mm
01:32 7.8 °C 6.3 °C 1019.5 hPa Calm   3.2 km/h 90 % 0.0 mm
01:37 7.8 °C 6.3 °C 1019.5 hPa Calm   1.6 km/h 90 % 0.0 mm
01:42 7.8 °C 6.3 °C 1019.5 hPa Calm   1.6 km/h 90 % 0.0 mm
01:47 7.9 °C 6.4 °C 1019.5 hPa Calm   1.6 km/h 90 % 0.0 mm
01:52 8.0 °C 6.5 °C 1019.2 hPa Calm   1.6 km/h 90 % 0.0 mm
01:57 8.0 °C 6.5 °C 1019.2 hPa Calm   1.6 km/h 90 % 0.0 mm
02:02 8.0 °C 6.3 °C 1019.2 hPa Calm   1.6 km/h 89 % 0.0 mm
02:07 7.9 °C 6.2 °C 1019.2 hPa Calm   1.6 km/h 89 % 0.0 mm
02:12 7.9 °C 6.4 °C 1019.2 hPa Calm   1.6 km/h 90 % 0.0 mm
02:17 7.8 °C 6.1 °C 1019.2 hPa Calm   1.6 km/h 89 % 0.0 mm
02:22 7.8 °C 6.3 °C 1019.2 hPa Calm     90 % 0.0 mm
02:27 7.7 °C 6.0 °C 1019.2 hPa Calm     89 % 0.0 mm
02:32 7.4 °C 5.9 °C 1019.2 hPa Calm   1.6 km/h 90 % 0.0 mm
02:37 7.2 °C 5.7 °C 1019.2 hPa Calm   1.6 km/h 90 % 0.0 mm
02:42 7.1 °C 5.7 °C 1019.2 hPa Calm   1.6 km/h 91 % 0.0 mm
02:47 7.1 °C 5.7 °C 1019.2 hPa Calm   1.6 km/h 91 % 0.0 mm
02:52 6.9 °C 5.5 °C 1019.2 hPa Calm   1.6 km/h 91 % 0.0 mm
02:57 6.8 °C 5.6 °C 1019.2 hPa Calm   1.6 km/h 92 % 0.0 mm
03:02 6.8 °C 5.6 °C 1019.2 hPa Calm   1.6 km/h 92 % 0.0 mm
03:07 6.6 °C 5.4 °C 1019.2 hPa Calm   1.6 km/h 92 % 0.0 mm
03:12 6.4 °C 5.2 °C 1018.8 hPa Calm   1.6 km/h 92 % 0.0 mm
03:22 6.6 °C 5.7 °C 1018.8 hPa Calm   1.6 km/h 94 % 0.0 mm
03:27 6.8 °C 5.9 °C 1018.8 hPa Calm   1.6 km/h 94 % 0.0 mm
03:32 6.9 °C 5.8 °C 1018.8 hPa Calm   1.6 km/h 93 % 0.0 mm
03:37 6.9 °C 5.8 °C 1018.8 hPa Calm   1.6 km/h 93 % 0.0 mm
03:42 7.0 °C 5.9 °C 1018.8 hPa Calm   1.6 km/h 93 % 0.0 mm
03:47 6.9 °C 5.7 °C 1018.8 hPa Calm   1.6 km/h 92 % 0.0 mm
03:52 6.8 °C 5.6 °C 1018.8 hPa Calm     92 % 0.0 mm
03:57 6.9 °C 5.8 °C 1018.8 hPa Calm     93 % 0.0 mm
04:02 6.8 °C 5.6 °C 1018.8 hPa Calm     92 % 0.0 mm
04:07 6.7 °C 5.5 °C 1018.8 hPa Calm     92 % 0.0 mm
04:12 6.8 °C 5.7 °C 1018.8 hPa Calm     93 % 0.0 mm
04:17 6.6 °C 5.4 °C 1018.8 hPa Calm     92 % 0.0 mm
04:22 6.4 °C 5.2 °C 1018.8 hPa Calm     92 % 0.0 mm
04:27 6.3 °C 5.3 °C 1018.8 hPa Calm   1.6 km/h 93 % 0.0 mm
04:32 6.4 °C 5.4 °C 1018.8 hPa Calm   1.6 km/h 93 % 0.0 mm
04:37 6.6 °C 5.7 °C 1018.8 hPa Calm   1.6 km/h 94 % 0.0 mm
04:42 6.7 °C 5.8 °C 1018.8 hPa Calm     94 % 0.0 mm
04:47 6.6 °C 5.5 °C 1018.8 hPa Calm     93 % 0.0 mm
04:52 6.5 °C 5.4 °C 1018.8 hPa Calm     93 % 0.0 mm
04:57 6.6 °C 5.7 °C 1018.8 hPa Calm     94 % 0.0 mm
05:02 6.4 °C 5.4 °C 1018.8 hPa Calm     93 % 0.0 mm
05:12 6.9 °C 6.0 °C 1018.8 hPa Calm   1.6 km/h 94 % 0.0 mm
05:17 7.1 °C 6.2 °C 1018.8 hPa NNW 1.6 km/h 3.2 km/h 94 % 0.0 mm
05:22 7.1 °C 6.0 °C 1018.5 hPa Calm   3.2 km/h 93 % 0.0 mm
05:27 7.2 °C 6.1 °C 1018.5 hPa Calm   3.2 km/h 93 % 0.0 mm
05:32 7.2 °C 6.1 °C 1018.8 hPa Calm   1.6 km/h 93 % 0.0 mm
05:37 7.1 °C 6.0 °C 1018.5 hPa Calm   1.6 km/h 93 % 0.0 mm
05:42 7.0 °C 5.8 °C 1018.5 hPa Calm   1.6 km/h 92 % 0.0 mm
05:47 6.8 °C 5.6 °C 1018.5 hPa Calm     92 % 0.0 mm
05:52 6.7 °C 5.5 °C 1018.5 hPa Calm     92 % 0.0 mm
06:02 6.0 °C 4.8 °C 1018.5 hPa Calm     92 % 0.0 mm
06:12 5.7 °C 4.5 °C 1018.5 hPa Calm   1.6 km/h 92 % 0.0 mm
06:17 5.6 °C 4.6 °C 1018.5 hPa Calm   1.6 km/h 93 % 0.0 mm
06:22 5.6 °C 4.6 °C 1018.8 hPa Calm     93 % 0.0 mm
06:32 5.6 °C 4.7 °C 1018.8 hPa Calm     94 % 0.0 mm
06:42 5.5 °C 4.6 °C 1018.8 hPa Calm     94 % 0.0 mm
06:47 5.6 °C 4.7 °C 1018.8 hPa Calm     94 % 0.0 mm
06:52 5.7 °C 4.8 °C 1018.8 hPa Calm     94 % 0.0 mm
07:02 5.7 °C 4.8 °C 1018.8 hPa Calm     94 % 0.0 mm
07:12 5.7 °C 4.8 °C 1018.8 hPa Calm   1.6 km/h 94 % 0.0 mm
07:17 5.8 °C 4.9 °C 1018.8 hPa Calm   1.6 km/h 94 % 0.0 mm
07:22 5.8 °C 5.1 °C 1018.8 hPa Calm     95 % 0.0 mm
07:27 5.8 °C 5.1 °C 1018.8 hPa Calm     95 % 0.0 mm
07:32 5.8 °C 5.1 °C 1018.8 hPa Calm     95 % 0.0 mm
07:37 5.8 °C 5.1 °C 1018.8 hPa Calm     95 % 0.0 mm
07:42 5.9 °C 5.2 °C 1018.8 hPa Calm     95 % 0.0 mm
07:47 5.9 °C 5.2 °C 1018.8 hPa Calm     95 % 0.0 mm
07:52 6.1 °C 5.4 °C 1018.8 hPa Calm     95 % 0.0 mm
07:57 6.2 °C 5.5 °C 1018.8 hPa Calm     95 % 0.0 mm
08:02 6.4 °C 5.7 °C 1018.8 hPa Calm     95 % 0.0 mm
08:12 6.9 °C 6.2 °C 1018.8 hPa Calm     95 % 0.0 mm
08:17 7.3 °C 6.6 °C 1018.8 hPa Calm   1.6 km/h 95 % 0.0 mm
08:22 7.7 °C 7.1 °C 1018.8 hPa Calm   1.6 km/h 96 % 0.0 mm
08:27 7.9 °C 7.1 °C 1018.8 hPa Calm   1.6 km/h 95 % 0.0 mm
08:32 8.3 °C 7.5 °C 1018.8 hPa Calm     95 % 0.0 mm
08:42 8.9 °C 8.0 °C 1018.8 hPa Calm   1.6 km/h 94 % 0.0 mm
08:47 8.9 °C 7.7 °C 1018.8 hPa NE 4.8 km/h 6.4 km/h 92 % 0.0 mm
08:57 8.7 °C 7.5 °C 1018.8 hPa ENE 1.6 km/h 6.4 km/h 92 % 0.0 mm
09:02 8.6 °C 7.2 °C 1019.2 hPa ENE 1.6 km/h 6.4 km/h 91 % 0.0 mm
09:12 8.8 °C 7.6 °C 1019.2 hPa ENE 1.6 km/h 6.4 km/h 92 % 0.0 mm
09:17 8.8 °C 7.6 °C 1018.8 hPa Calm   4.8 km/h 92 % 0.0 mm
09:22 8.8 °C 7.6 °C 1019.2 hPa Calm   4.8 km/h 92 % 0.0 mm
09:27 8.9 °C 7.7 °C 1019.2 hPa Calm   3.2 km/h 92 % 0.0 mm
09:32 9.1 °C 7.9 °C 1019.2 hPa Calm   3.2 km/h 92 % 0.0 mm
09:37 9.0 °C 7.6 °C 1019.2 hPa Calm   3.2 km/h 91 % 0.0 mm
09:42 9.1 °C 7.7 °C 1019.2 hPa Calm   1.6 km/h 91 % 0.0 mm
09:47 9.2 °C 8.0 °C 1019.2 hPa SW 1.6 km/h 1.6 km/h 92 % 0.0 mm
09:52 9.2 °C 7.8 °C 1019.2 hPa SSW 1.6 km/h 3.2 km/h 91 % 0.0 mm
09:57 9.2 °C 7.8 °C 1019.2 hPa Calm   4.8 km/h 91 % 0.0 mm
10:02 9.3 °C 7.9 °C 1019.2 hPa Calm   4.8 km/h 91 % 0.0 mm
10:07 9.4 °C 8.0 °C 1019.2 hPa Calm   4.8 km/h 91 % 0.0 mm
10:12 9.7 °C 8.3 °C 1019.2 hPa Calm   1.6 km/h 91 % 0.0 mm
10:17 9.7 °C 8.1 °C 1019.2 hPa Calm     90 % 0.0 mm
10:27 9.9 °C 8.2 °C 1019.2 hPa SE 1.6 km/h   89 % 0.0 mm
10:32 9.9 °C 8.2 °C 1019.2 hPa Calm   3.2 km/h 89 % 0.0 mm
10:37 9.9 °C 8.0 °C 1019.2 hPa SSW 1.6 km/h 3.2 km/h 88 % 0.0 mm
10:42 9.9 °C 7.8 °C 1019.2 hPa SSW 1.6 km/h 4.8 km/h 87 % 0.0 mm
10:47 10.0 °C 8.1 °C 1019.2 hPa SE 1.6 km/h 4.8 km/h 88 % 0.0 mm
10:52 10.1 °C 8.2 °C 1019.2 hPa Calm   4.8 km/h 88 % 0.0 mm
10:57 10.2 °C 8.1 °C 1019.2 hPa SSE 3.2 km/h 4.8 km/h 87 % 0.0 mm
11:02 10.2 °C 8.0 °C 1019.2 hPa South 3.2 km/h 4.8 km/h 86 % 0.0 mm
11:12 10.2 °C 8.0 °C 1019.2 hPa SSW 3.2 km/h 8.0 km/h 86 % 0.0 mm
11:17 10.2 °C 7.8 °C 1019.2 hPa SW 3.2 km/h 8.0 km/h 85 % 0.0 mm
11:22 10.3 °C 7.7 °C 1019.2 hPa Calm   8.0 km/h 84 % 0.0 mm
11:27 10.4 °C 7.6 °C 1019.2 hPa Calm   8.0 km/h 83 % 0.0 mm
11:32 10.6 °C 7.8 °C 1019.2 hPa SSW 1.6 km/h 8.0 km/h 83 % 0.0 mm
11:37 10.8 °C 8.2 °C 1019.2 hPa Calm   6.4 km/h 84 % 0.0 mm
11:42 11.2 °C 8.6 °C 1019.2 hPa Calm   1.6 km/h 84 % 0.0 mm
11:47 11.2 °C 8.4 °C 1019.2 hPa Calm   1.6 km/h 83 % 0.0 mm
11:52 11.1 °C 8.5 °C 1018.8 hPa NE 3.2 km/h 3.2 km/h 84 % 0.0 mm
11:57 11.2 °C 8.6 °C 1018.8 hPa East 1.6 km/h 6.4 km/h 84 % 0.0 mm
12:02 11.2 °C 8.1 °C 1018.8 hPa East 1.6 km/h 6.4 km/h 81 % 0.0 mm
12:07 11.4 °C 8.3 °C 1018.8 hPa ENE 3.2 km/h 6.4 km/h 81 % 0.0 mm
12:12 11.6 °C 8.5 °C 1018.8 hPa NE 1.6 km/h 8.0 km/h 81 % 0.0 mm
12:17 11.7 °C 8.5 °C 1018.8 hPa Calm   8.0 km/h 81 % 0.0 mm
12:22 11.8 °C 8.1 °C 1018.8 hPa Calm   8.0 km/h 78 % 0.0 mm
12:27 12.1 °C 8.4 °C 1018.8 hPa NNE 4.8 km/h 8.0 km/h 78 % 0.0 mm
12:32 12.2 °C 8.5 °C 1018.8 hPa Calm   8.0 km/h 78 % 0.0 mm
12:42 13.1 °C 8.4 °C 1018.8 hPa NNW 3.2 km/h 6.4 km/h 73 % 0.0 mm
12:47 12.9 °C 8.4 °C 1018.8 hPa Calm   6.4 km/h 74 % 0.0 mm
12:52 13.1 °C 8.0 °C 1018.8 hPa NNE 3.2 km/h 6.4 km/h 71 % 0.0 mm
12:57 12.6 °C 8.3 °C 1018.8 hPa NNW 9.7 km/h 14.5 km/h 75 % 0.0 mm
13:02 11.8 °C 8.5 °C 1018.8 hPa NNW 9.7 km/h 14.5 km/h 80 % 0.0 mm
13:12 10.9 °C 8.3 °C 1018.8 hPa Calm   14.5 km/h 84 % 0.5 mm
13:17 10.7 °C 8.3 °C 1018.8 hPa NNE 3.2 km/h 9.7 km/h 85 % 0.5 mm
13:22 10.3 °C 7.9 °C 1018.8 hPa NNE 3.2 km/h 8.0 km/h 85 % 0.8 mm
13:27 10.2 °C 7.6 °C 1018.8 hPa NNE 6.4 km/h 11.3 km/h 84 % 1.0 mm
13:32 10.1 °C 7.5 °C 1018.8 hPa NE 6.4 km/h 11.3 km/h 84 % 1.0 mm
13:37 10.1 °C 7.7 °C 1018.8 hPa NNE 3.2 km/h 11.3 km/h 85 % 1.0 mm
13:42 10.2 °C 7.8 °C 1018.8 hPa NE 6.4 km/h 9.7 km/h 85 % 1.0 mm
13:47 10.2 °C 7.8 °C 1018.5 hPa NE 1.6 km/h 9.7 km/h 85 % 1.0 mm
13:52 10.3 °C 7.9 °C 1018.5 hPa NE 6.4 km/h 9.7 km/h 85 % 1.0 mm
13:57 10.6 °C 8.4 °C 1018.5 hPa Calm   8.0 km/h 86 % 1.0 mm
14:02 10.9 °C 8.6 °C 1018.5 hPa Calm   8.0 km/h 86 % 1.0 mm
14:07 11.1 °C 8.7 °C 1018.5 hPa NW 4.8 km/h 8.0 km/h 85 % 0.5 mm
14:12 11.2 °C 8.6 °C 1018.5 hPa Calm   12.9 km/h 84 % 0.5 mm
14:17 11.2 °C 8.4 °C 1018.5 hPa Calm   12.9 km/h 83 % 0.3 mm
14:22 11.1 °C 8.0 °C 1018.8 hPa Calm   12.9 km/h 81 % 0.3 mm
14:27 11.1 °C 8.0 °C 1018.5 hPa ESE 3.2 km/h 8.0 km/h 81 % 0.0 mm
14:32 11.0 °C 8.2 °C 1018.5 hPa East 3.2 km/h 4.8 km/h 83 % 0.0 mm
14:37 10.9 °C 8.1 °C 1018.5 hPa Calm   6.4 km/h 83 % 0.0 mm
14:42 11.2 °C 8.6 °C 1018.5 hPa ENE 1.6 km/h 6.4 km/h 84 % 0.0 mm
14:47 11.0 °C 8.2 °C 1018.5 hPa Calm   3.2 km/h 83 % 0.0 mm
14:52 11.1 °C 8.5 °C 1018.2 hPa NE 3.2 km/h 3.2 km/h 84 % 0.0 mm
14:57 11.2 °C 8.6 °C 1018.2 hPa NNE 3.2 km/h 4.8 km/h 84 % 0.0 mm
15:02 11.5 °C 8.9 °C 1018.2 hPa NNE 8.0 km/h 8.0 km/h 84 % 0.0 mm
15:07 11.7 °C 8.7 °C 1017.8 hPa North 6.4 km/h 14.5 km/h 82 % 0.0 mm
15:12 11.8 °C 8.6 °C 1017.8 hPa North 6.4 km/h 16.1 km/h 81 % 0.0 mm
15:17 12.1 °C 9.1 °C 1017.8 hPa NNW 6.4 km/h 16.1 km/h 82 % 0.0 mm
15:22 12.3 °C 9.5 °C 1017.8 hPa NNW 4.8 km/h 16.1 km/h 83 % 0.0 mm
15:27 12.3 °C 8.4 °C 1017.8 hPa NE 4.8 km/h 14.5 km/h 77 % 0.0 mm
15:32 12.6 °C 8.9 °C 1017.8 hPa North 6.4 km/h 12.9 km/h 78 % 0.0 mm
15:37 12.7 °C 8.6 °C 1017.8 hPa North 6.4 km/h 12.9 km/h 76 % 0.0 mm
15:42 12.7 °C 8.6 °C 1017.8 hPa West 3.2 km/h 11.3 km/h 76 % 0.0 mm
15:47 12.9 °C 8.4 °C 1017.8 hPa NE 1.6 km/h 11.3 km/h 74 % 0.0 mm
15:52 13.1 °C 9.0 °C 1017.8 hPa Calm   8.0 km/h 76 % 0.0 mm
15:57 13.2 °C 8.3 °C 1017.8 hPa NNW 1.6 km/h 6.4 km/h 72 % 0.0 mm
16:02 13.2 °C 8.7 °C 1017.8 hPa West 3.2 km/h 6.4 km/h 74 % 0.0 mm
16:07 13.1 °C 8.2 °C 1017.8 hPa North 6.4 km/h 6.4 km/h 72 % 0.0 mm
16:12 13.1 °C 8.2 °C 1017.8 hPa NW 1.6 km/h 6.4 km/h 72 % 0.0 mm
16:17 13.2 °C 8.3 °C 1017.8 hPa Calm   6.4 km/h 72 % 0.0 mm
16:22 13.1 °C 7.8 °C 1017.8 hPa Calm   6.4 km/h 70 % 0.0 mm
16:27 13.2 °C 8.1 °C 1017.8 hPa Calm   4.8 km/h 71 % 0.0 mm
16:32 13.5 °C 7.7 °C 1017.8 hPa Calm   4.8 km/h 68 % 0.0 mm
16:37 13.5 °C 7.7 °C 1017.8 hPa Calm   3.2 km/h 68 % 0.0 mm
16:42 13.7 °C 8.1 °C 1017.5 hPa Calm   1.6 km/h 69 % 0.0 mm
16:47 13.5 °C 7.9 °C 1017.5 hPa Calm   3.2 km/h 69 % 0.0 mm
16:52 13.6 °C 8.2 °C 1017.5 hPa Calm   3.2 km/h 70 % 0.0 mm
16:57 13.7 °C 7.9 °C 1017.5 hPa SW 1.6 km/h 3.2 km/h 68 % 0.0 mm
17:02 13.5 °C 7.9 °C 1017.5 hPa Calm   3.2 km/h 69 % 0.0 mm
17:12 13.4 °C 8.9 °C 1017.5 hPa ESE 1.6 km/h 3.2 km/h 74 % 0.0 mm
17:17 13.3 °C 9.2 °C 1017.5 hPa ESE 1.6 km/h 4.8 km/h 76 % 0.0 mm
17:22 13.1 °C 9.2 °C 1017.5 hPa SSW 3.2 km/h 6.4 km/h 77 % 0.0 mm
17:27 12.9 °C 9.2 °C 1017.5 hPa SSE 1.6 km/h 6.4 km/h 78 % 0.0 mm
17:32 12.9 °C 9.2 °C 1017.5 hPa SSW 1.6 km/h 6.4 km/h 78 % 0.0 mm
17:37 12.8 °C 9.1 °C 1017.5 hPa SSW 1.6 km/h 6.4 km/h 78 % 0.0 mm
17:42 12.8 °C 9.2 °C 1017.5 hPa SE 3.2 km/h 6.4 km/h 79 % 0.0 mm
17:47 12.8 °C 8.9 °C 1017.5 hPa Calm   6.4 km/h 77 % 0.0 mm
17:52 12.7 °C 8.8 °C 1017.5 hPa SE 3.2 km/h 6.4 km/h 77 % 0.0 mm
17:57 12.7 °C 9.0 °C 1017.2 hPa SSE 4.8 km/h 6.4 km/h 78 % 0.0 mm
18:02 12.6 °C 8.5 °C 1017.2 hPa SW 4.8 km/h 11.3 km/h 76 % 0.0 mm
18:07 12.6 °C 9.1 °C 1017.2 hPa SW 4.8 km/h 11.3 km/h 79 % 0.0 mm
18:17 12.4 °C 7.5 °C 1017.2 hPa SW 1.6 km/h 11.3 km/h 72 % 0.0 mm
18:22 12.5 °C 7.8 °C 1017.2 hPa SW 3.2 km/h 11.3 km/h 73 % 0.0 mm
18:27 12.5 °C 7.6 °C 1017.2 hPa SSW 4.8 km/h 11.3 km/h 72 % 0.0 mm
18:37 12.4 °C 7.9 °C 1017.2 hPa SW 4.8 km/h 11.3 km/h 74 % 0.0 mm
18:42 12.4 °C 7.9 °C 1017.5 hPa SW 4.8 km/h 11.3 km/h 74 % 0.0 mm
18:47 12.3 °C 8.0 °C 1017.5 hPa SW 1.6 km/h 11.3 km/h 75 % 0.0 mm
18:52 12.3 °C 8.2 °C 1017.5 hPa WSW 1.6 km/h 8.0 km/h 76 % 0.0 mm
18:57 12.2 °C 8.1 °C 1017.5 hPa WSW 3.2 km/h 6.4 km/h 76 % 0.0 mm
19:02 11.8 °C 7.7 °C 1017.5 hPa NE 4.8 km/h 4.8 km/h 76 % 0.0 mm
19:07 11.2 °C 7.9 °C 1017.5 hPa Calm   12.9 km/h 80 % 0.0 mm
19:12 10.9 °C 7.8 °C 1017.5 hPa NNE 6.4 km/h 12.9 km/h 81 % 0.0 mm
19:17 10.6 °C 7.5 °C 1017.5 hPa North 4.8 km/h 12.9 km/h 81 % 0.0 mm
19:22 10.3 °C 7.4 °C 1017.5 hPa NNE 1.6 km/h 12.9 km/h 82 % 0.0 mm
19:32 9.9 °C 7.3 °C 1017.5 hPa North 6.4 km/h 11.3 km/h 84 % 0.0 mm
19:37 9.7 °C 7.3 °C 1017.5 hPa NNW 4.8 km/h 11.3 km/h 85 % 0.0 mm
19:42 9.6 °C 7.2 °C 1017.5 hPa NW 4.8 km/h 11.3 km/h 85 % 0.0 mm
19:47 9.4 °C 7.2 °C 1017.8 hPa NNW 4.8 km/h 9.7 km/h 86 % 0.0 mm
19:57 9.2 °C 7.1 °C 1017.8 hPa NNW 4.8 km/h 12.9 km/h 87 % 0.0 mm
20:02 9.2 °C 7.3 °C 1017.8 hPa NW 1.6 km/h 12.9 km/h 88 % 0.0 mm
20:07 9.1 °C 7.2 °C 1017.8 hPa NW 1.6 km/h 11.3 km/h 88 % 0.0 mm
20:12 9.1 °C 7.4 °C 1017.8 hPa NNW 1.6 km/h 8.0 km/h 89 % 0.0 mm
20:17 8.9 °C 7.2 °C 1017.8 hPa NNW 3.2 km/h 8.0 km/h 89 % 0.3 mm
20:27 8.8 °C 7.2 °C 1017.8 hPa Calm   8.0 km/h 90 % 0.5 mm
20:32 8.7 °C 7.2 °C 1017.8 hPa NNE 1.6 km/h 8.0 km/h 90 % 0.5 mm
20:42 8.6 °C 7.2 °C 1017.5 hPa NNE 4.8 km/h 8.0 km/h 91 % 1.0 mm
20:47 8.6 °C 7.4 °C 1017.8 hPa NNE 3.2 km/h 9.7 km/h 92 % 1.3 mm
20:52 8.6 °C 7.4 °C 1017.8 hPa NNW 1.6 km/h 9.7 km/h 92 % 1.3 mm
20:57 8.6 °C 7.4 °C 1017.8 hPa Calm   9.7 km/h 92 % 1.3 mm
21:02 8.5 °C 7.3 °C 1017.8 hPa Calm   8.0 km/h 92 % 1.3 mm
21:07 8.5 °C 7.4 °C 1017.8 hPa Calm   4.8 km/h 93 % 1.3 mm
21:12 8.5 °C 7.4 °C 1017.8 hPa NNW 1.6 km/h 4.8 km/h 93 % 1.0 mm
21:22 8.4 °C 7.3 °C 1017.8 hPa Calm   3.2 km/h 93 % 0.8 mm
21:27 8.5 °C 7.4 °C 1017.8 hPa Calm   3.2 km/h 93 % 0.8 mm
21:32 8.4 °C 7.3 °C 1017.8 hPa Calm   3.2 km/h 93 % 0.8 mm
21:37 8.4 °C 7.3 °C 1017.8 hPa Calm   1.6 km/h 93 % 0.5 mm
21:42 8.4 °C 7.3 °C 1017.8 hPa Calm   1.6 km/h 93 % 0.5 mm
21:47 8.4 °C 7.3 °C 1017.8 hPa Calm   1.6 km/h 93 % 0.3 mm
21:52 8.3 °C 7.4 °C 1017.8 hPa Calm   1.6 km/h 94 % 0.3 mm
21:57 8.3 °C 7.4 °C 1017.8 hPa Calm   1.6 km/h 94 % 0.5 mm
22:02 8.3 °C 7.4 °C 1017.8 hPa Calm   1.6 km/h 94 % 0.5 mm
22:12 8.3 °C 7.4 °C 1017.8 hPa Calm     94 % 0.5 mm
22:17 8.3 °C 7.4 °C 1017.8 hPa Calm     94 % 0.5 mm
22:22 8.3 °C 7.4 °C 1017.8 hPa Calm     94 % 0.5 mm
22:27 8.3 °C 7.4 °C 1018.2 hPa Calm   1.6 km/h 94 % 0.5 mm
22:32 8.3 °C 7.4 °C 1017.8 hPa Calm   1.6 km/h 94 % 0.3 mm
22:37 8.3 °C 7.4 °C 1017.8 hPa NNE 1.6 km/h 1.6 km/h 94 % 0.5 mm
22:42 8.3 °C 7.4 °C 1017.8 hPa NE 1.6 km/h 1.6 km/h 94 % 0.5 mm
22:52 8.2 °C 7.3 °C 1017.8 hPa Calm   3.2 km/h 94 % 0.5 mm
22:57 8.2 °C 7.4 °C 1017.8 hPa Calm   3.2 km/h 95 % 0.3 mm
23:02 8.2 °C 7.4 °C 1017.8 hPa NNE 1.6 km/h 3.2 km/h 95 % 0.3 mm
23:12 8.2 °C 7.4 °C 1017.8 hPa NE 4.8 km/h 8.0 km/h 95 % 0.3 mm
23:17 8.2 °C 7.4 °C 1017.8 hPa NNE 3.2 km/h 8.0 km/h 95 % 0.3 mm
23:22 8.2 °C 7.4 °C 1017.8 hPa NE 3.2 km/h 8.0 km/h 95 % 0.3 mm
23:27 8.2 °C 7.4 °C 1017.8 hPa Calm   8.0 km/h 95 % 0.3 mm
23:32 8.2 °C 7.4 °C 1017.8 hPa Calm   6.4 km/h 95 % 0.0 mm
23:37 8.1 °C 7.3 °C 1017.8 hPa Calm   6.4 km/h 95 % 0.0 mm
23:42 8.1 °C 7.3 °C 1017.8 hPa Calm   4.8 km/h 95 % 0.0 mm
23:47 8.1 °C 7.3 °C 1017.8 hPa Calm   3.2 km/h 95 % 0.0 mm
23:52 8.1 °C 7.3 °C 1017.8 hPa NNE 1.6 km/h 3.2 km/h 95 % 0.0 mm
23:57 8.1 °C 7.3 °C 1017.8 hPa Calm   4.8 km/h 95 % 0.0 mm
Meteo18
Compliments of Weather Underground - 4 mb

Script developed by  Jim McMurry - jmcmurry@mwt.net Adapted for the template by  Wim van der Kuil - Leuven-Template.eu

You find our weather info also at:

European Weather Network

Weather Underground

Equipment we use:

Weather-station
Davis Vue

Weather-program
Meteohub

Weather-server
Raspberry PI 2 B+

Provider
1 and 1

Davis Vue

Meteohub

Raspberry PI 2 B+

1 and 1